Time;durP1;ratioP1;P1;durP2;ratioP2;P2;SDS_P1;SDS_P2;PMS_P1;PMS_P2;Temp;Humidity;BMP_temperature;BMP_pressure;BME280_temperature;BME280_humidity;BME280_pressure;Samples;Min_cycle;Max_cycle;Signal;HPM_P1;HPM_P2
2022/10/15 05:00:32;;;;;;;11.83;8.57;;;;;;;;;;5037251;28;20619;-74
2022/10/15 05:02:59;;;;;;;12.27;7.33;;;;;;;;;;5048935;28;20238;-75
2022/10/15 05:05:26;;;;;;;8.70;5.70;;;;;;;;;;5050415;28;20198;-76
2022/10/15 05:07:53;;;;;;;8.70;4.83;;;;;;;;;;5049986;28;20216;-77
2022/10/15 05:10:19;;;;;;;6.03;3.63;;;;;;;;;;5050014;28;20198;-77
2022/10/15 05:12:46;;;;;;;5.00;4.50;;;;;;;;;;5049689;28;20206;-77
2022/10/15 05:15:13;;;;;;;4.77;4.27;;;;;;;;;;5050002;28;20201;-77
2022/10/15 05:17:41;;;;;;;3.77;3.10;;;;;;;;;;5050148;28;20205;-77
2022/10/15 05:20:09;;;;;;;3.57;2.67;;;;;;;;;;5049935;28;20219;-77
2022/10/15 05:22:35;;;;;;;6.17;4.83;;;;;;;;;;5049625;28;20596;-77
2022/10/15 05:25:02;;;;;;;31.10;25.23;;;;;;;;;;5049620;28;20206;-77
2022/10/15 05:27:29;;;;;;;22.23;19.90;;;;;;;;;;5049889;28;20719;-77
2022/10/15 05:29:56;;;;;;;50.90;41.00;;;;;;;;;;5049992;28;20210;-77
2022/10/15 05:32:23;;;;;;;39.73;32.90;;;;;;;;;;5049957;28;20239;-77
2022/10/15 05:34:51;;;;;;;8.97;6.60;;;;;;;;;;5049397;28;20673;-77
2022/10/15 05:37:20;;;;;;;5.73;4.07;;;;;;;;;;5049775;28;20202;-77
2022/10/15 05:39:47;;;;;;;3.13;2.93;;;;;;;;;;5049723;28;20701;-77
2022/10/15 05:42:13;;;;;;;4.27;3.23;;;;;;;;;;5049898;28;20213;-77
2022/10/15 05:44:40;;;;;;;4.03;3.63;;;;;;;;;;5049943;28;20202;-77
2022/10/15 05:47:10;;;;;;;3.73;2.87;;;;;;;;;;5050482;28;21254;-77
2022/10/15 05:49:37;;;;;;;2.93;2.60;;;;;;;;;;5049684;28;21235;-77
2022/10/15 05:52:05;;;;;;;3.27;2.97;;;;;;;;;;5049680;28;20225;-77
2022/10/15 05:54:32;;;;;;;4.23;3.47;;;;;;;;;;5049839;28;20217;-77
2022/10/15 05:56:59;;;;;;;3.73;3.43;;;;;;;;;;5049586;28;20691;-77
2022/10/15 05:59:25;;;;;;;10.77;8.93;;;;;;;;;;5050185;28;20268;-77
2022/10/15 06:01:52;;;;;;;22.53;16.93;;;;;;;;;;5049949;28;20222;-77
2022/10/15 06:04:19;;;;;;;29.90;24.53;;;;;;;;;;5049559;28;20644;-77
2022/10/15 06:06:46;;;;;;;43.30;25.33;;;;;;;;;;5049515;28;20214;-77
2022/10/15 06:09:14;;;;;;;69.00;39.13;;;;;;;;;;5044364;28;20210;-78
2022/10/15 06:11:41;;;;;;;12.83;9.23;;;;;;;;;;5040291;28;20803;-77
2022/10/15 06:14:08;;;;;;;6.50;5.50;;;;;;;;;;5052891;28;20213;-77
2022/10/15 06:16:34;;;;;;;5.47;4.10;;;;;;;;;;5053030;28;20202;-77
2022/10/15 06:19:01;;;;;;;5.77;4.33;;;;;;;;;;5052712;28;20202;-78
2022/10/15 06:21:28;;;;;;;5.07;3.47;;;;;;;;;;5053354;28;20612;-77
2022/10/15 06:23:55;;;;;;;3.57;2.53;;;;;;;;;;5052982;28;20699;-77
2022/10/15 06:26:23;;;;;;;2.57;2.10;;;;;;;;;;5052125;28;20198;-77
2022/10/15 06:28:50;;;;;;;4.60;2.50;;;;;;;;;;5052144;28;20202;-77
2022/10/15 06:31:17;;;;;;;4.53;2.23;;;;;;;;;;5052241;28;20224;-77
2022/10/15 06:33:43;;;;;;;3.53;2.00;;;;;;;;;;5051360;28;20213;-77
2022/10/15 06:36:12;;;;;;;6.87;3.67;;;;;;;;;;5051809;28;20201;-77
2022/10/15 06:38:39;;;;;;;2.20;2.00;;;;;;;;;;5052122;28;20202;-77
2022/10/15 06:41:07;;;;;;;3.07;2.10;;;;;;;;;;5052015;28;20263;-77
2022/10/15 06:43:35;;;;;;;2.47;1.83;;;;;;;;;;5052401;28;20205;-77
2022/10/15 06:46:03;;;;;;;1.80;1.70;;;;;;;;;;5052296;28;20214;-77
2022/10/15 06:48:30;;;;;;;2.10;1.90;;;;;;;;;;5052239;28;20744;-77
2022/10/15 06:50:58;;;;;;;1.70;1.60;;;;;;;;;;5052706;28;20264;-78
2022/10/15 06:53:25;;;;;;;1.77;1.67;;;;;;;;;;5052331;28;20281;-77
2022/10/15 06:55:54;;;;;;;1.33;1.20;;;;;;;;;;5052148;28;20919;-77
2022/10/15 06:58:20;;;;;;;2.77;1.40;;;;;;;;;;5052325;28;20206;-77
2022/10/15 07:00:48;;;;;;;1.57;1.47;;;;;;;;;;5051719;28;20708;-77
2022/10/15 07:03:15;;;;;;;1.43;1.33;;;;;;;;;;5052248;28;20198;-78
2022/10/15 07:05:42;;;;;;;3.50;1.50;;;;;;;;;;5052271;28;20198;-78
2022/10/15 07:08:09;;;;;;;1.47;1.37;;;;;;;;;;5052214;28;20213;-77
2022/10/15 07:10:36;;;;;;;3.27;1.50;;;;;;;;;;5052172;28;20198;-77
2022/10/15 07:13:03;;;;;;;2.47;1.67;;;;;;;;;;5051747;28;20228;-78
2022/10/15 07:15:29;;;;;;;2.90;1.77;;;;;;;;;;5051550;28;20197;-78
2022/10/15 07:18:00;;;;;;;1.50;1.40;;;;;;;;;;5052242;28;20677;-80
2022/10/15 07:20:28;;;;;;;2.77;1.77;;;;;;;;;;5051626;28;20210;-77
2022/10/15 07:22:56;;;;;;;2.53;1.53;;;;;;;;;;5050833;28;20205;-77
2022/10/15 07:25:23;;;;;;;3.77;1.60;;;;;;;;;;5045748;28;20202;-77
2022/10/15 07:27:50;;;;;;;1.97;1.40;;;;;;;;;;5051500;28;20220;-77
2022/10/15 07:30:17;;;;;;;1.73;1.57;;;;;;;;;;5038263;28;20203;-77
2022/10/15 07:32:44;;;;;;;4.67;2.10;;;;;;;;;;5051335;28;20658;-76
2022/10/15 07:35:12;;;;;;;1.90;1.80;;;;;;;;;;5051824;28;20202;-77
2022/10/15 07:37:38;;;;;;;1.77;1.67;;;;;;;;;;5051670;28;20592;-77
2022/10/15 07:40:06;;;;;;;2.00;1.80;;;;;;;;;;5051598;28;20592;-77
2022/10/15 07:42:33;;;;;;;2.77;1.60;;;;;;;;;;5048648;28;20236;-77
2022/10/15 07:45:00;;;;;;;4.43;1.70;;;;;;;;;;5039725;28;20206;-76
2022/10/15 07:47:27;;;;;;;1.63;1.53;;;;;;;;;;5051276;28;20217;-78
2022/10/15 07:49:53;;;;;;;2.00;1.90;;;;;;;;;;5051356;28;20206;-76
2022/10/15 07:52:22;;;;;;;2.57;2.10;;;;;;;;;;5051157;28;20225;-77
2022/10/15 07:54:49;;;;;;;2.73;2.10;;;;;;;;;;5051388;28;20206;-77
2022/10/15 07:57:18;;;;;;;3.03;2.10;;;;;;;;;;5051458;28;20209;-77
2022/10/15 07:59:44;;;;;;;3.50;1.80;;;;;;;;;;5050646;28;20260;-77
2022/10/15 08:02:15;;;;;;;2.23;2.00;;;;;;;;;;5051484;28;20232;-77
2022/10/15 08:04:41;;;;;;;5.90;3.03;;;;;;;;;;5051043;28;20677;-79
2022/10/15 08:07:10;;;;;;;3.30;1.67;;;;;;;;;;5050958;28;20257;-78
2022/10/15 08:09:38;;;;;;;1.87;1.70;;;;;;;;;;5050464;28;20194;-77
2022/10/15 08:12:06;;;;;;;2.17;1.73;;;;;;;;;;5051103;28;20255;-77
2022/10/15 08:14:33;;;;;;;1.80;1.70;;;;;;;;;;5051205;28;20231;-76
2022/10/15 08:16:59;;;;;;;2.00;1.73;;;;;;;;;;5051183;28;20257;-77
2022/10/15 08:19:26;;;;;;;2.33;1.90;;;;;;;;;;5050353;28;20207;-76
2022/10/15 08:21:53;;;;;;;1.90;1.80;;;;;;;;;;5051165;28;20204;-77
2022/10/15 08:24:20;;;;;;;6.67;2.03;;;;;;;;;;5050409;28;20205;-76
2022/10/15 08:26:48;;;;;;;2.60;2.03;;;;;;;;;;5050875;28;20206;-76
2022/10/15 08:29:15;;;;;;;2.47;1.60;;;;;;;;;;5050543;28;20213;-76
2022/10/15 08:31:42;;;;;;;2.87;2.00;;;;;;;;;;5049898;28;20221;-76
2022/10/15 08:34:09;;;;;;;2.90;1.33;;;;;;;;;;5050471;28;20214;-77
2022/10/15 08:36:36;;;;;;;6.27;5.67;;;;;;;;;;5050505;28;20695;-76
2022/10/15 08:39:06;;;;;;;3.80;1.97;;;;;;;;;;5049963;28;20206;-76
2022/10/15 08:41:36;;;;;;;2.70;1.67;;;;;;;;;;5050815;28;20684;-76
2022/10/15 08:44:05;;;;;;;5.57;1.60;;;;;;;;;;5050379;28;20201;-76
2022/10/15 08:46:36;;;;;;;2.03;1.83;;;;;;;;;;5050740;28;20206;-77
2022/10/15 08:49:03;;;;;;;2.57;1.90;;;;;;;;;;5050054;28;20610;-80
2022/10/15 08:51:34;;;;;;;1.70;1.60;;;;;;;;;;5050076;28;20205;-76
2022/10/15 08:54:03;;;;;;;5.13;2.73;;;;;;;;;;5050495;28;20202;-77
2022/10/15 08:56:35;;;;;;;3.47;2.00;;;;;;;;;;5043373;28;20684;-76
2022/10/15 08:59:07;;;;;;;4.40;2.20;;;;;;;;;;5050439;28;20208;-76
2022/10/15 09:01:38;;;;;;;4.23;2.30;;;;;;;;;;5049706;28;20229;-76
2022/10/15 09:04:16;;;;;;;4.03;2.37;;;;;;;;;;5050414;28;20753;-77
2022/10/15 09:06:43;;;;;;;2.80;2.60;;;;;;;;;;5050545;28;20213;-76
2022/10/15 09:09:17;;;;;;;3.67;2.30;;;;;;;;;;5049758;28;20212;-76
2022/10/15 09:11:52;;;;;;;2.50;2.30;;;;;;;;;;5050161;28;20232;-76
2022/10/15 09:14:24;;;;;;;4.00;3.00;;;;;;;;;;5049603;28;20209;-77
2022/10/15 09:16:50;;;;;;;3.50;2.60;;;;;;;;;;5050135;28;20203;-77
2022/10/15 09:19:19;;;;;;;3.20;3.00;;;;;;;;;;5049716;28;20210;-77
2022/10/15 09:21:47;;;;;;;3.77;2.50;;;;;;;;;;5050235;28;20200;-77
2022/10/15 09:24:18;;;;;;;3.20;2.90;;;;;;;;;;5049959;28;20201;-77
2022/10/15 09:26:53;;;;;;;6.03;2.77;;;;;;;;;;5049808;28;20232;-77
2022/10/15 09:29:25;;;;;;;5.80;2.77;;;;;;;;;;5049722;28;20204;-77
2022/10/15 09:31:58;;;;;;;2.40;2.20;;;;;;;;;;5049965;28;20229;-77
2022/10/15 09:34:29;;;;;;;2.93;2.60;;;;;;;;;;5050259;28;20205;-77
2022/10/15 09:37:00;;;;;;;3.27;2.97;;;;;;;;;;5050077;28;20235;-77
2022/10/15 09:39:38;;;;;;;2.93;2.63;;;;;;;;;;5049534;28;20262;-77
2022/10/15 09:42:13;;;;;;;3.30;2.47;;;;;;;;;;5050104;28;20210;-77
2022/10/15 09:44:43;;;;;;;5.67;2.70;;;;;;;;;;5053472;28;20202;-77
2022/10/15 09:47:17;;;;;;;2.90;2.60;;;;;;;;;;5053686;28;20261;-79
2022/10/15 09:49:44;;;;;;;10.23;3.43;;;;;;;;;;5053038;28;20255;-77
2022/10/15 09:52:16;;;;;;;5.67;2.47;;;;;;;;;;5054004;28;20224;-77
2022/10/15 09:54:46;;;;;;;37.93;6.20;;;;;;;;;;5053302;28;20225;-77
2022/10/15 09:57:14;;;;;;;6.27;2.27;;;;;;;;;;5053448;28;20688;-77
2022/10/15 09:59:54;;;;;;;6.53;3.47;;;;;;;;;;5053301;28;20209;-77
2022/10/15 10:02:22;;;;;;;7.37;2.50;;;;;;;;;;5053833;28;20280;-79
2022/10/15 10:04:49;;;;;;;3.90;2.07;;;;;;;;;;5053538;28;20202;-79
2022/10/15 10:07:31;;;;;;;2.30;2.10;;;;;;;;;;5053556;28;20656;-80
2022/10/15 10:10:00;;;;;;;4.90;2.30;;;;;;;;;;5053296;28;20206;-78
2022/10/15 10:12:28;;;;;;;2.30;2.10;;;;;;;;;;5053161;28;20225;-79
2022/10/15 10:14:58;;;;;;;6.70;3.10;;;;;;;;;;5053161;28;20201;-78
2022/10/15 10:17:26;;;;;;;2.87;2.20;;;;;;;;;;5052947;28;20194;-78
2022/10/15 10:20:15;;;;;;;2.77;2.23;;;;;;;;;;5053175;28;20268;-78
2022/10/15 10:22:44;;;;;;;3.83;2.57;;;;;;;;;;5053260;28;20228;-78
2022/10/15 10:25:27;;;;;;;5.53;2.50;;;;;;;;;;5052419;28;20672;-77
2022/10/15 10:27:55;;;;;;;2.70;2.17;;;;;;;;;;5052979;28;20202;-78
2022/10/15 10:30:23;;;;;;;2.70;2.13;;;;;;;;;;5053032;28;20217;-78
2022/10/15 10:33:14;;;;;;;2.17;2.07;;;;;;;;;;5038757;28;20236;-78
2022/10/15 10:35:46;;;;;;;2.70;2.50;;;;;;;;;;5051885;28;20275;-78
2022/10/15 10:38:20;;;;;;;2.40;2.10;;;;;;;;;;5053218;28;20205;-79
2022/10/15 10:40:50;;;;;;;4.00;2.47;;;;;;;;;;5052677;28;20239;-78
2022/10/15 10:43:20;;;;;;;4.80;2.60;;;;;;;;;;5052508;28;20213;-78
2022/10/15 10:45:55;;;;;;;6.33;2.33;;;;;;;;;;5052588;28;20198;-78
2022/10/15 10:48:25;;;;;;;5.80;2.47;;;;;;;;;;5052531;28;20205;-78
2022/10/15 10:51:03;;;;;;;4.20;3.80;;;;;;;;;;5052262;28;20616;-77
2022/10/15 10:53:30;;;;;;;2.73;2.13;;;;;;;;;;5051910;28;20739;-78
2022/10/15 10:55:57;;;;;;;2.63;1.97;;;;;;;;;;5052331;28;20202;-78
2022/10/15 10:58:25;;;;;;;2.37;2.17;;;;;;;;;;5052084;28;20684;-78
2022/10/15 11:00:54;;;;;;;2.60;2.40;;;;;;;;;;5052198;28;20209;-78
2022/10/15 11:03:27;;;;;;;3.63;2.07;;;;;;;;;;5052221;28;20205;-78
2022/10/15 11:05:59;;;;;;;4.20;2.40;;;;;;;;;;5052321;28;20209;-78
2022/10/15 11:08:32;;;;;;;2.73;2.33;;;;;;;;;;5052216;28;20688;-78
2022/10/15 11:11:06;;;;;;;2.17;2.00;;;;;;;;;;5051848;28;20210;-78
2022/10/15 11:13:50;;;;;;;2.20;1.87;;;;;;;;;;5052120;28;20230;-78
2022/10/15 11:16:27;;;;;;;4.40;2.80;;;;;;;;;;5052000;28;20197;-78
2022/10/15 11:19:00;;;;;;;2.67;2.47;;;;;;;;;;5051765;28;20259;-78
2022/10/15 11:21:43;;;;;;;3.03;2.23;;;;;;;;;;5051839;28;20209;-78
2022/10/15 11:24:13;;;;;;;4.13;2.27;;;;;;;;;;5052063;28;20202;-78
2022/10/15 11:26:57;;;;;;;3.53;2.50;;;;;;;;;;5051861;28;20202;-78
2022/10/15 11:29:30;;;;;;;3.13;2.33;;;;;;;;;;5051474;28;20202;-79
2022/10/15 11:32:10;;;;;;;3.87;2.50;;;;;;;;;;5051606;28;20209;-78
2022/10/15 11:34:43;;;;;;;4.90;1.97;;;;;;;;;;5051663;28;20204;-78
2022/10/15 11:37:22;;;;;;;2.20;2.00;;;;;;;;;;5051830;28;20272;-78
2022/10/15 11:39:59;;;;;;;2.57;2.37;;;;;;;;;;5051261;28;20255;-78
2022/10/15 11:42:29;;;;;;;5.40;2.67;;;;;;;;;;5051703;28;20228;-78
2022/10/15 11:45:16;;;;;;;3.60;2.70;;;;;;;;;;5051679;28;20202;-81
2022/10/15 11:47:50;;;;;;;3.43;2.60;;;;;;;;;;5051266;28;20201;-78
2022/10/15 11:50:27;;;;;;;5.87;2.53;;;;;;;;;;5051268;28;20206;-78
2022/10/15 11:53:04;;;;;;;3.20;3.00;;;;;;;;;;5051525;28;20229;-78
2022/10/15 11:55:36;;;;;;;2.40;2.20;;;;;;;;;;5051352;28;20208;-78
2022/10/15 11:58:07;;;;;;;1.93;1.83;;;;;;;;;;5051683;28;20202;-78
2022/10/15 12:00:38;;;;;;;3.50;2.47;;;;;;;;;;5050091;28;20754;-79
2022/10/15 12:03:12;;;;;;;4.53;2.33;;;;;;;;;;5051471;28;20236;-80
2022/10/15 12:05:41;;;;;;;2.90;2.50;;;;;;;;;;5036704;28;20201;-80
2022/10/15 12:08:09;;;;;;;3.27;2.13;;;;;;;;;;5050977;28;20201;-80
2022/10/15 12:10:50;;;;;;;4.73;2.50;;;;;;;;;;5051033;28;20208;-80
2022/10/15 12:13:23;;;;;;;3.10;2.80;;;;;;;;;;5050908;28;20719;-79
2022/10/15 12:15:55;;;;;;;2.53;2.33;;;;;;;;;;5050649;28;20206;-80
2022/10/15 12:18:33;;;;;;;3.53;2.97;;;;;;;;;;5051065;28;20205;-79
2022/10/15 12:21:00;;;;;;;3.90;2.30;;;;;;;;;;5050998;28;20228;-79
2022/10/15 12:23:40;;;;;;;4.33;2.20;;;;;;;;;;5050890;28;20228;-79
2022/10/15 12:26:27;;;;;;;3.30;2.30;;;;;;;;;;5050623;28;20989;-79
2022/10/15 12:28:56;;;;;;;3.00;2.67;;;;;;;;;;5050412;28;20623;-79
2022/10/15 12:31:23;;;;;;;3.47;2.77;;;;;;;;;;5050804;28;20210;-79
2022/10/15 12:33:52;;;;;;;5.13;2.13;;;;;;;;;;5050782;28;20233;-79
2022/10/15 12:36:26;;;;;;;5.03;2.20;;;;;;;;;;5050379;28;20216;-79
2022/10/15 12:38:57;;;;;;;2.80;2.43;;;;;;;;;;5050599;28;20307;-79
2022/10/15 12:41:34;;;;;;;2.43;2.23;;;;;;;;;;5050563;28;20194;-80
2022/10/15 12:44:06;;;;;;;2.63;2.20;;;;;;;;;;5050565;28;20209;-80
2022/10/15 12:46:36;;;;;;;2.77;2.47;;;;;;;;;;5050634;28;20198;-80
2022/10/15 12:49:43;;;;;;;2.23;2.00;;;;;;;;;;5050083;28;20212;-80
2022/10/15 12:52:43;;;;;;;3.50;2.20;;;;;;;;;;5037612;28;20205;-80
2022/10/15 12:55:27;;;;;;;2.70;2.13;;;;;;;;;;5049871;28;20201;-80
2022/10/15 12:57:57;;;;;;;5.00;2.00;;;;;;;;;;5050531;28;20206;-79
2022/10/15 13:00:41;;;;;;;2.73;2.20;;;;;;;;;;5050277;28;20202;-79
2022/10/15 13:03:35;;;;;;;2.70;2.33;;;;;;;;;;5050540;28;20315;-80
2022/10/15 13:06:24;;;;;;;3.27;2.17;;;;;;;;;;5039440;28;20638;-81
2022/10/15 13:08:53;;;;;;;5.83;3.17;;;;;;;;;;5050112;28;20205;-81
2022/10/15 13:11:22;;;;;;;3.33;2.97;;;;;;;;;;5050423;28;20622;-80
2022/10/15 13:13:51;;;;;;;2.07;1.87;;;;;;;;;;5049719;28;20226;-80
2022/10/15 13:16:18;;;;;;;2.70;2.40;;;;;;;;;;5050021;28;20202;-81
2022/10/15 13:18:49;;;;;;;4.73;2.73;;;;;;;;;;5053913;28;20210;-80
2022/10/15 13:21:18;;;;;;;3.57;2.37;;;;;;;;;;5054218;28;20206;-85
2022/10/15 13:23:46;;;;;;;4.40;2.17;;;;;;;;;;5054245;28;20205;-84
2022/10/15 13:26:18;;;;;;;4.50;2.17;;;;;;;;;;5054136;28;20205;-78
2022/10/15 13:28:45;;;;;;;2.17;1.97;;;;;;;;;;5053876;28;20209;-78
2022/10/15 13:31:19;;;;;;;2.83;2.63;;;;;;;;;;5054052;28;20212;-78
2022/10/15 13:33:48;;;;;;;2.93;2.30;;;;;;;;;;5053987;28;20229;-78
2022/10/15 13:36:21;;;;;;;2.13;1.90;;;;;;;;;;5053719;28;20198;-78
2022/10/15 13:38:53;;;;;;;2.47;2.27;;;;;;;;;;5054015;28;20236;-78
2022/10/15 13:41:27;;;;;;;2.33;2.13;;;;;;;;;;5040337;28;20202;-78
2022/10/15 13:43:57;;;;;;;2.67;2.20;;;;;;;;;;5053849;28;20696;-78
2022/10/15 13:46:24;;;;;;;2.60;2.40;;;;;;;;;;5053411;28;20591;-78
2022/10/15 13:48:56;;;;;;;2.40;2.20;;;;;;;;;;5053918;28;20256;-78
2022/10/15 13:51:28;;;;;;;2.37;1.60;;;;;;;;;;5053138;28;20231;-77
2022/10/15 13:53:55;;;;;;;2.70;2.00;;;;;;;;;;5053512;28;20240;-77
2022/10/15 13:56:26;;;;;;;2.37;2.20;;;;;;;;;;5053583;28;20201;-78
2022/10/15 13:58:53;;;;;;;1.83;1.70;;;;;;;;;;5053186;28;20255;-78
2022/10/15 14:01:22;;;;;;;2.20;2.00;;;;;;;;;;5053484;28;20248;-78
2022/10/15 14:03:50;;;;;;;2.97;2.50;;;;;;;;;;5053112;28;20209;-78
2022/10/15 14:06:19;;;;;;;5.60;2.47;;;;;;;;;;5036448;28;20199;-78
2022/10/15 14:08:48;;;;;;;3.37;2.10;;;;;;;;;;5043062;28;20205;-77
2022/10/15 14:11:17;;;;;;;2.00;1.87;;;;;;;;;;5053009;28;20688;-78
2022/10/15 14:13:45;;;;;;;2.77;1.83;;;;;;;;;;5053536;28;20228;-77
2022/10/15 14:16:14;;;;;;;2.10;1.73;;;;;;;;;;5053470;28;20236;-77
2022/10/15 14:18:43;;;;;;;3.30;2.40;;;;;;;;;;5053147;28;20199;-77
2022/10/15 14:21:11;;;;;;;4.40;1.90;;;;;;;;;;5053625;28;20209;-77
2022/10/15 14:23:38;;;;;;;2.47;1.87;;;;;;;;;;5039245;28;20228;-77
2022/10/15 14:26:07;;;;;;;2.67;2.33;;;;;;;;;;5053084;28;20240;-77
2022/10/15 14:28:34;;;;;;;2.27;2.07;;;;;;;;;;5051965;28;20200;-77
2022/10/15 14:31:02;;;;;;;7.23;2.63;;;;;;;;;;5053032;28;20209;-77
2022/10/15 14:33:43;;;;;;;2.10;1.90;;;;;;;;;;5053234;28;20316;-76
2022/10/15 14:36:22;;;;;;;2.23;2.07;;;;;;;;;;5052855;28;20637;-77
2022/10/15 14:38:49;;;;;;;3.73;2.00;;;;;;;;;;5052656;28;20208;-77
2022/10/15 14:41:25;;;;;;;2.30;2.10;;;;;;;;;;5052886;28;20566;-77
2022/10/15 14:44:04;;;;;;;3.50;2.47;;;;;;;;;;5053175;28;20238;-78
2022/10/15 14:46:36;;;;;;;4.83;2.30;;;;;;;;;;5052957;28;20201;-77
2022/10/15 14:49:03;;;;;;;2.97;2.77;;;;;;;;;;5052790;28;20286;-77
2022/10/15 14:51:30;;;;;;;3.10;2.60;;;;;;;;;;5052391;28;20211;-77
2022/10/15 14:54:00;;;;;;;2.40;2.20;;;;;;;;;;5052621;28;20224;-78
2022/10/15 14:56:32;;;;;;;3.47;2.20;;;;;;;;;;5052673;28;20204;-77
2022/10/15 14:58:59;;;;;;;3.60;2.37;;;;;;;;;;5052596;28;20639;-77
2022/10/15 15:01:29;;;;;;;2.83;2.53;;;;;;;;;;5052491;28;20235;-77
2022/10/15 15:03:57;;;;;;;3.17;2.43;;;;;;;;;;5038559;28;20207;-78
2022/10/15 15:06:24;;;;;;;4.07;3.63;;;;;;;;;;5052251;28;20212;-78
2022/10/15 15:08:51;;;;;;;3.47;2.67;;;;;;;;;;5052222;28;20222;-77
2022/10/15 15:11:20;;;;;;;3.40;3.10;;;;;;;;;;5052474;28;20263;-77
2022/10/15 15:13:54;;;;;;;3.73;2.37;;;;;;;;;;5052433;28;20251;-77
2022/10/15 15:16:21;;;;;;;3.13;2.40;;;;;;;;;;5052273;28;20202;-77
2022/10/15 15:18:47;;;;;;;2.93;2.70;;;;;;;;;;5052129;28;20203;-77
2022/10/15 15:21:16;;;;;;;2.50;2.30;;;;;;;;;;5052141;28;20206;-77
2022/10/15 15:23:43;;;;;;;3.20;2.40;;;;;;;;;;5052175;28;21035;-77
2022/10/15 15:26:10;;;;;;;3.70;2.17;;;;;;;;;;5052294;28;20229;-76
2022/10/15 15:28:37;;;;;;;2.57;2.13;;;;;;;;;;5051868;28;20198;-77
2022/10/15 15:31:07;;;;;;;3.20;2.83;;;;;;;;;;5051587;28;20264;-77
2022/10/15 15:33:34;;;;;;;3.80;2.97;;;;;;;;;;5051538;28;20256;-77
2022/10/15 15:36:04;;;;;;;2.93;2.57;;;;;;;;;;5051478;28;20589;-77
2022/10/15 15:38:31;;;;;;;2.80;2.50;;;;;;;;;;5051602;28;20201;-77
2022/10/15 15:41:02;;;;;;;5.90;3.17;;;;;;;;;;5051204;28;20205;-77
2022/10/15 15:43:29;;;;;;;6.73;2.87;;;;;;;;;;5051753;28;20202;-77
2022/10/15 15:45:55;;;;;;;4.57;2.70;;;;;;;;;;5051454;28;20225;-77
2022/10/15 15:48:23;;;;;;;6.07;2.37;;;;;;;;;;5051460;28;20198;-78
2022/10/15 15:50:50;;;;;;;3.90;3.17;;;;;;;;;;5051574;28;20201;-77
2022/10/15 15:53:17;;;;;;;6.83;2.90;;;;;;;;;;5051794;28;20565;-77
2022/10/15 15:55:44;;;;;;;2.97;2.67;;;;;;;;;;5051357;28;20233;-77
2022/10/15 15:58:12;;;;;;;6.47;3.23;;;;;;;;;;5051369;28;20220;-77
2022/10/15 16:00:39;;;;;;;3.50;3.20;;;;;;;;;;5050575;28;20692;-77
2022/10/15 16:03:07;;;;;;;3.13;2.73;;;;;;;;;;5051309;28;20205;-77
2022/10/15 16:05:56;;;;;;;3.83;2.70;;;;;;;;;;5051079;28;20293;-77
2022/10/15 16:08:25;;;;;;;2.97;2.50;;;;;;;;;;5047187;28;20206;-77
2022/10/15 16:11:36;;;;;;;3.37;2.90;;;;;;;;;;5051107;28;20233;-77
2022/10/15 16:14:03;;;;;;;5.23;3.00;;;;;;;;;;4993364;28;20230;-77
2022/10/15 16:16:30;;;;;;;3.40;2.77;;;;;;;;;;5039795;28;20640;-77
2022/10/15 16:18:57;;;;;;;6.37;3.50;;;;;;;;;;5050892;28;20198;-77
2022/10/15 16:21:26;;;;;;;3.63;2.97;;;;;;;;;;5050556;28;20214;-77
2022/10/15 16:23:53;;;;;;;3.67;3.37;;;;;;;;;;5050681;28;20206;-77
2022/10/15 16:26:19;;;;;;;3.20;2.93;;;;;;;;;;5051120;28;20209;-77
2022/10/15 16:28:46;;;;;;;3.77;2.53;;;;;;;;;;5050785;28;20201;-77
2022/10/15 16:31:14;;;;;;;4.90;2.97;;;;;;;;;;5050482;28;20220;-77
2022/10/15 16:33:42;;;;;;;4.47;2.83;;;;;;;;;;5050630;28;20320;-76
2022/10/15 16:36:08;;;;;;;4.53;3.13;;;;;;;;;;5050363;28;20694;-77
2022/10/15 16:38:38;;;;;;;5.57;3.80;;;;;;;;;;5051073;28;20671;-77
2022/10/15 16:41:05;;;;;;;6.27;3.90;;;;;;;;;;5050120;28;20201;-77
2022/10/15 16:43:32;;;;;;;4.73;3.40;;;;;;;;;;5050760;28;20641;-76
2022/10/15 16:46:00;;;;;;;4.53;3.30;;;;;;;;;;5050396;28;20205;-77
2022/10/15 16:48:27;;;;;;;4.93;3.13;;;;;;;;;;5050490;28;20212;-77
2022/10/15 16:51:00;;;;;;;6.70;3.53;;;;;;;;;;5050249;28;20707;-77
2022/10/15 16:53:30;;;;;;;3.57;3.27;;;;;;;;;;5049950;28;20208;-77
2022/10/15 16:56:03;;;;;;;5.50;3.80;;;;;;;;;;5050424;28;20221;-77
2022/10/15 16:58:34;;;;;;;5.20;3.33;;;;;;;;;;5050064;28;20257;-76
2022/10/15 17:01:01;;;;;;;4.87;3.20;;;;;;;;;;5050078;28;20238;-77
2022/10/15 17:03:29;;;;;;;4.20;3.33;;;;;;;;;;5050110;28;20201;-77
2022/10/15 17:05:56;;;;;;;5.20;3.63;;;;;;;;;;5050067;28;20197;-76
2022/10/15 17:08:25;;;;;;;4.00;3.37;;;;;;;;;;5050788;28;20264;-77
2022/10/15 17:10:52;;;;;;;6.47;3.60;;;;;;;;;;5050129;28;20260;-77
2022/10/15 17:13:20;;;;;;;3.37;2.97;;;;;;;;;;5050366;28;20296;-76
2022/10/15 17:15:48;;;;;;;5.07;3.70;;;;;;;;;;5049668;28;20228;-77
2022/10/15 17:18:15;;;;;;;3.60;3.30;;;;;;;;;;5050012;28;20237;-77
2022/10/15 17:20:45;;;;;;;11.07;3.33;;;;;;;;;;5050055;28;20212;-76
2022/10/15 17:23:12;;;;;;;3.80;3.10;;;;;;;;;;5050206;28;20201;-76
2022/10/15 17:25:39;;;;;;;4.30;3.17;;;;;;;;;;5050153;28;20201;-76
2022/10/15 17:28:06;;;;;;;3.27;2.97;;;;;;;;;;5049848;28;20205;-77
2022/10/15 17:30:36;;;;;;;3.83;3.17;;;;;;;;;;5050168;28;20210;-77
2022/10/15 17:33:04;;;;;;;4.07;3.13;;;;;;;;;;5050217;28;20216;-76
2022/10/15 17:35:31;;;;;;;4.57;3.60;;;;;;;;;;5049733;28;20224;-77
2022/10/15 17:37:58;;;;;;;4.40;3.30;;;;;;;;;;5049980;28;20236;-77
2022/10/15 17:40:25;;;;;;;3.43;3.13;;;;;;;;;;5049785;28;20651;-76
2022/10/15 17:42:54;;;;;;;3.50;3.20;;;;;;;;;;5050160;28;20244;-77
2022/10/15 17:45:21;;;;;;;4.23;3.57;;;;;;;;;;5049707;28;20682;-76
2022/10/15 17:47:50;;;;;;;3.33;3.03;;;;;;;;;;5050105;28;20230;-77
2022/10/15 17:50:18;;;;;;;5.07;3.60;;;;;;;;;;5049511;28;20198;-76
2022/10/15 17:52:45;;;;;;;3.90;3.53;;;;;;;;;;5050023;28;20220;-76
2022/10/15 17:55:12;;;;;;;4.23;3.53;;;;;;;;;;5049744;28;20225;-77
2022/10/15 17:57:38;;;;;;;5.93;3.37;;;;;;;;;;5049669;28;21151;-76
2022/10/15 18:00:07;;;;;;;3.57;3.13;;;;;;;;;;5049593;28;20213;-76
2022/10/15 18:02:34;;;;;;;7.70;4.37;;;;;;;;;;5049943;28;20458;-76
2022/10/15 18:05:02;;;;;;;4.33;3.93;;;;;;;;;;5051900;28;20655;-76
2022/10/15 18:07:29;;;;;;;5.80;3.77;;;;;;;;;;5053678;28;20223;-76
2022/10/15 18:09:56;;;;;;;5.53;3.73;;;;;;;;;;5053042;28;20206;-76
2022/10/15 18:12:25;;;;;;;6.23;3.30;;;;;;;;;;5053620;28;20646;-77
2022/10/15 18:14:52;;;;;;;4.30;3.90;;;;;;;;;;5053395;28;20228;-76
2022/10/15 18:17:19;;;;;;;5.17;4.57;;;;;;;;;;5053051;28;20210;-77
2022/10/15 18:19:46;;;;;;;4.97;3.87;;;;;;;;;;5053260;28;20209;-77
2022/10/15 18:22:14;;;;;;;6.43;4.73;;;;;;;;;;5053025;28;20268;-76
2022/10/15 18:24:41;;;;;;;5.00;4.17;;;;;;;;;;5051777;28;20301;-76
2022/10/15 18:27:08;;;;;;;6.07;4.27;;;;;;;;;;5052592;28;20215;-76
2022/10/15 18:29:35;;;;;;;8.00;4.93;;;;;;;;;;5053126;28;20204;-77
2022/10/15 18:32:02;;;;;;;6.77;4.20;;;;;;;;;;5053256;28;20218;-76
2022/10/15 18:34:29;;;;;;;5.00;4.50;;;;;;;;;;5052694;28;20190;-76
2022/10/15 18:36:56;;;;;;;4.93;4.43;;;;;;;;;;5052827;28;20202;-77
2022/10/15 18:39:27;;;;;;;4.73;4.20;;;;;;;;;;5053066;28;20209;-76
2022/10/15 18:41:54;;;;;;;5.50;5.00;;;;;;;;;;5053269;28;20212;-76
2022/10/15 18:44:24;;;;;;;6.60;4.37;;;;;;;;;;5051040;28;20212;-76
2022/10/15 18:46:54;;;;;;;7.10;4.37;;;;;;;;;;5051954;28;20203;-77
2022/10/15 18:49:23;;;;;;;5.63;3.80;;;;;;;;;;5051251;28;20213;-76
2022/10/15 18:51:54;;;;;;;4.83;4.17;;;;;;;;;;5051495;28;20586;-76
2022/10/15 18:54:21;;;;;;;5.67;5.07;;;;;;;;;;5051363;28;20236;-77
2022/10/15 18:56:51;;;;;;;5.80;4.50;;;;;;;;;;5050966;28;20222;-77
2022/10/15 18:59:18;;;;;;;5.40;4.50;;;;;;;;;;5051327;28;20202;-76
2022/10/15 19:01:45;;;;;;;6.00;4.57;;;;;;;;;;5051342;28;20234;-77
2022/10/15 19:04:15;;;;;;;5.23;4.17;;;;;;;;;;5050996;28;20229;-77
2022/10/15 19:06:43;;;;;;;6.20;5.07;;;;;;;;;;5051163;28;20233;-77
2022/10/15 19:09:12;;;;;;;5.77;4.40;;;;;;;;;;5051333;28;20219;-77
2022/10/15 19:11:40;;;;;;;5.53;4.97;;;;;;;;;;5051107;28;20216;-77
2022/10/15 19:14:09;;;;;;;7.73;4.63;;;;;;;;;;5036667;28;20212;-77
2022/10/15 19:16:36;;;;;;;6.40;4.33;;;;;;;;;;5050912;28;20233;-77
2022/10/15 19:19:04;;;;;;;7.67;4.93;;;;;;;;;;5050788;28;20683;-77
2022/10/15 19:21:31;;;;;;;4.43;4.03;;;;;;;;;;5051275;28;20212;-76
2022/10/15 19:23:58;;;;;;;6.57;4.73;;;;;;;;;;5050503;28;20209;-76
2022/10/15 19:26:27;;;;;;;8.67;5.23;;;;;;;;;;5050834;28;20214;-77
2022/10/15 19:28:53;;;;;;;4.40;4.00;;;;;;;;;;5050825;28;20646;-77
2022/10/15 19:31:25;;;;;;;6.93;4.60;;;;;;;;;;5050402;28;20573;-77
2022/10/15 19:33:52;;;;;;;4.67;4.27;;;;;;;;;;5050318;28;20217;-76
2022/10/15 19:36:20;;;;;;;5.63;4.27;;;;;;;;;;5050215;28;20229;-77
2022/10/15 19:38:47;;;;;;;7.77;5.70;;;;;;;;;;5050561;28;20228;-77
2022/10/15 19:41:14;;;;;;;4.87;4.37;;;;;;;;;;5050526;28;20209;-76
2022/10/15 19:43:42;;;;;;;8.17;4.20;;;;;;;;;;5050385;28;20236;-76
2022/10/15 19:46:09;;;;;;;4.20;3.87;;;;;;;;;;5050249;28;20304;-76
2022/10/15 19:48:38;;;;;;;4.87;3.60;;;;;;;;;;5050806;28;20203;-77
2022/10/15 19:51:06;;;;;;;7.20;4.67;;;;;;;;;;5050165;28;20213;-76
2022/10/15 19:53:33;;;;;;;4.23;3.47;;;;;;;;;;5050408;28;20221;-77
2022/10/15 19:56:01;;;;;;;5.60;4.33;;;;;;;;;;5042772;28;20223;-77
2022/10/15 19:58:28;;;;;;;4.33;3.93;;;;;;;;;;5032097;28;20206;-77